sensor_id;sensor_type;location;lat;lon;timestamp;P1;durP1;ratioP1;P2;durP2;ratioP2
12660;SDS011;39039;51.802;5.710;2022-08-21T00:01:30;11.43;;;5.83;;
12660;SDS011;39039;51.802;5.710;2022-08-21T00:03:57;8.73;;;5.50;;
12660;SDS011;39039;51.802;5.710;2022-08-21T00:06:24;10.60;;;5.63;;
12660;SDS011;39039;51.802;5.710;2022-08-21T00:08:52;16.30;;;5.63;;
12660;SDS011;39039;51.802;5.710;2022-08-21T00:11:19;10.17;;;5.50;;
12660;SDS011;39039;51.802;5.710;2022-08-21T00:13:46;7.93;;;5.67;;
12660;SDS011;39039;51.802;5.710;2022-08-21T00:16:13;10.90;;;5.73;;
12660;SDS011;39039;51.802;5.710;2022-08-21T00:18:40;10.20;;;6.03;;
12660;SDS011;39039;51.802;5.710;2022-08-21T00:21:07;10.97;;;5.87;;
12660;SDS011;39039;51.802;5.710;2022-08-21T00:23:34;7.43;;;5.67;;
12660;SDS011;39039;51.802;5.710;2022-08-21T00:26:02;10.83;;;5.87;;
12660;SDS011;39039;51.802;5.710;2022-08-21T00:28:30;7.20;;;5.40;;
12660;SDS011;39039;51.802;5.710;2022-08-21T00:30:56;8.87;;;6.10;;
12660;SDS011;39039;51.802;5.710;2022-08-21T00:33:24;8.60;;;5.43;;
12660;SDS011;39039;51.802;5.710;2022-08-21T00:35:51;13.63;;;6.33;;
12660;SDS011;39039;51.802;5.710;2022-08-21T00:38:18;8.03;;;5.70;;
12660;SDS011;39039;51.802;5.710;2022-08-21T00:40:47;7.67;;;5.20;;
12660;SDS011;39039;51.802;5.710;2022-08-21T00:43:19;10.33;;;5.80;;
12660;SDS011;39039;51.802;5.710;2022-08-21T00:45:47;10.17;;;5.80;;
12660;SDS011;39039;51.802;5.710;2022-08-21T00:48:15;11.90;;;6.10;;
12660;SDS011;39039;51.802;5.710;2022-08-21T00:50:42;11.53;;;5.87;;
12660;SDS011;39039;51.802;5.710;2022-08-21T00:53:12;10.40;;;5.80;;
12660;SDS011;39039;51.802;5.710;2022-08-21T00:55:39;10.43;;;5.53;;
12660;SDS011;39039;51.802;5.710;2022-08-21T00:58:08;12.43;;;6.27;;
12660;SDS011;39039;51.802;5.710;2022-08-21T01:00:39;10.90;;;6.33;;
12660;SDS011;39039;51.802;5.710;2022-08-21T01:03:08;12.60;;;6.30;;
12660;SDS011;39039;51.802;5.710;2022-08-21T01:05:36;11.47;;;6.10;;
12660;SDS011;39039;51.802;5.710;2022-08-21T01:08:04;12.00;;;6.50;;
12660;SDS011;39039;51.802;5.710;2022-08-21T01:10:32;11.37;;;6.43;;
12660;SDS011;39039;51.802;5.710;2022-08-21T01:13:00;8.53;;;5.93;;
12660;SDS011;39039;51.802;5.710;2022-08-21T01:15:30;12.73;;;6.10;;
12660;SDS011;39039;51.802;5.710;2022-08-21T01:18:01;11.60;;;6.20;;
12660;SDS011;39039;51.802;5.710;2022-08-21T01:20:28;10.27;;;6.53;;
12660;SDS011;39039;51.802;5.710;2022-08-21T01:22:57;8.83;;;6.10;;
12660;SDS011;39039;51.802;5.710;2022-08-21T01:25:24;9.40;;;5.67;;
12660;SDS011;39039;51.802;5.710;2022-08-21T01:27:51;12.80;;;6.37;;
12660;SDS011;39039;51.802;5.710;2022-08-21T01:30:19;14.67;;;6.33;;
12660;SDS011;39039;51.802;5.710;2022-08-21T01:32:49;10.27;;;6.03;;
12660;SDS011;39039;51.802;5.710;2022-08-21T01:35:16;11.13;;;6.27;;
12660;SDS011;39039;51.802;5.710;2022-08-21T01:37:44;12.47;;;6.87;;
12660;SDS011;39039;51.802;5.710;2022-08-21T01:40:13;11.87;;;6.23;;
12660;SDS011;39039;51.802;5.710;2022-08-21T01:42:41;11.87;;;7.07;;
12660;SDS011;39039;51.802;5.710;2022-08-21T01:45:10;12.67;;;6.60;;
12660;SDS011;39039;51.802;5.710;2022-08-21T01:47:38;9.20;;;6.27;;
12660;SDS011;39039;51.802;5.710;2022-08-21T01:50:06;11.43;;;7.00;;
12660;SDS011;39039;51.802;5.710;2022-08-21T01:52:37;12.77;;;7.40;;
12660;SDS011;39039;51.802;5.710;2022-08-21T01:55:04;11.87;;;7.33;;
12660;SDS011;39039;51.802;5.710;2022-08-21T01:57:34;11.43;;;7.07;;
12660;SDS011;39039;51.802;5.710;2022-08-21T02:00:02;14.87;;;7.73;;
12660;SDS011;39039;51.802;5.710;2022-08-21T02:02:29;11.43;;;7.43;;
12660;SDS011;39039;51.802;5.710;2022-08-21T02:04:56;13.60;;;6.60;;
12660;SDS011;39039;51.802;5.710;2022-08-21T02:07:23;11.23;;;6.90;;
12660;SDS011;39039;51.802;5.710;2022-08-21T02:09:50;11.03;;;6.57;;
12660;SDS011;39039;51.802;5.710;2022-08-21T02:12:17;11.93;;;6.73;;
12660;SDS011;39039;51.802;5.710;2022-08-21T02:14:45;10.80;;;7.00;;
12660;SDS011;39039;51.802;5.710;2022-08-21T02:17:12;10.03;;;6.60;;
12660;SDS011;39039;51.802;5.710;2022-08-21T02:19:39;11.60;;;7.20;;
12660;SDS011;39039;51.802;5.710;2022-08-21T02:22:06;13.93;;;6.90;;
12660;SDS011;39039;51.802;5.710;2022-08-21T02:24:34;11.20;;;6.83;;
12660;SDS011;39039;51.802;5.710;2022-08-21T02:27:01;17.47;;;8.67;;
12660;SDS011;39039;51.802;5.710;2022-08-21T02:29:28;12.00;;;7.43;;
12660;SDS011;39039;51.802;5.710;2022-08-21T02:31:56;11.97;;;7.50;;
12660;SDS011;39039;51.802;5.710;2022-08-21T02:34:22;14.00;;;8.00;;
12660;SDS011;39039;51.802;5.710;2022-08-21T02:36:49;15.93;;;7.80;;
12660;SDS011;39039;51.802;5.710;2022-08-21T02:39:16;13.43;;;8.50;;
12660;SDS011;39039;51.802;5.710;2022-08-21T02:41:44;15.37;;;8.63;;
12660;SDS011;39039;51.802;5.710;2022-08-21T02:44:11;16.57;;;8.23;;
12660;SDS011;39039;51.802;5.710;2022-08-21T02:46:38;13.23;;;8.23;;
12660;SDS011;39039;51.802;5.710;2022-08-21T02:49:06;15.27;;;7.53;;
12660;SDS011;39039;51.802;5.710;2022-08-21T02:51:33;15.67;;;8.53;;
12660;SDS011;39039;51.802;5.710;2022-08-21T02:53:59;12.27;;;7.37;;
12660;SDS011;39039;51.802;5.710;2022-08-21T02:56:26;10.93;;;7.53;;
12660;SDS011;39039;51.802;5.710;2022-08-21T02:58:54;13.10;;;8.43;;
12660;SDS011;39039;51.802;5.710;2022-08-21T03:01:21;16.50;;;8.73;;
12660;SDS011;39039;51.802;5.710;2022-08-21T03:03:47;13.70;;;8.53;;
12660;SDS011;39039;51.802;5.710;2022-08-21T03:06:18;13.03;;;7.93;;
12660;SDS011;39039;51.802;5.710;2022-08-21T03:08:46;14.90;;;9.07;;
12660;SDS011;39039;51.802;5.710;2022-08-21T03:11:13;13.30;;;8.40;;
12660;SDS011;39039;51.802;5.710;2022-08-21T03:13:41;14.97;;;8.50;;
12660;SDS011;39039;51.802;5.710;2022-08-21T03:16:07;15.30;;;8.87;;
12660;SDS011;39039;51.802;5.710;2022-08-21T03:18:34;12.47;;;8.30;;
12660;SDS011;39039;51.802;5.710;2022-08-21T03:21:02;13.77;;;8.40;;
12660;SDS011;39039;51.802;5.710;2022-08-21T03:23:30;14.20;;;9.77;;
12660;SDS011;39039;51.802;5.710;2022-08-21T03:25:57;16.17;;;9.13;;
12660;SDS011;39039;51.802;5.710;2022-08-21T03:28:24;14.13;;;9.07;;
12660;SDS011;39039;51.802;5.710;2022-08-21T03:30:51;18.67;;;8.20;;
12660;SDS011;39039;51.802;5.710;2022-08-21T03:33:19;14.13;;;7.73;;
12660;SDS011;39039;51.802;5.710;2022-08-21T03:35:47;10.63;;;7.80;;
12660;SDS011;39039;51.802;5.710;2022-08-21T03:38:18;12.67;;;8.13;;
12660;SDS011;39039;51.802;5.710;2022-08-21T03:40:47;14.10;;;9.07;;
12660;SDS011;39039;51.802;5.710;2022-08-21T03:43:13;15.30;;;8.67;;
12660;SDS011;39039;51.802;5.710;2022-08-21T03:45:41;17.13;;;9.57;;
12660;SDS011;39039;51.802;5.710;2022-08-21T03:48:08;15.33;;;8.97;;
12660;SDS011;39039;51.802;5.710;2022-08-21T03:50:37;15.03;;;9.20;;
12660;SDS011;39039;51.802;5.710;2022-08-21T03:53:04;16.03;;;8.50;;
12660;SDS011;39039;51.802;5.710;2022-08-21T03:55:31;13.13;;;8.00;;
12660;SDS011;39039;51.802;5.710;2022-08-21T03:57:59;12.33;;;8.43;;
12660;SDS011;39039;51.802;5.710;2022-08-21T04:00:27;12.80;;;8.43;;
12660;SDS011;39039;51.802;5.710;2022-08-21T04:02:54;15.53;;;8.87;;
12660;SDS011;39039;51.802;5.710;2022-08-21T04:05:21;13.03;;;7.80;;
12660;SDS011;39039;51.802;5.710;2022-08-21T04:07:55;13.93;;;7.90;;
12660;SDS011;39039;51.802;5.710;2022-08-21T04:10:23;13.27;;;8.43;;
12660;SDS011;39039;51.802;5.710;2022-08-21T04:12:50;16.47;;;9.60;;
12660;SDS011;39039;51.802;5.710;2022-08-21T04:15:19;19.17;;;9.10;;
12660;SDS011;39039;51.802;5.710;2022-08-21T04:17:46;14.60;;;8.97;;
12660;SDS011;39039;51.802;5.710;2022-08-21T04:20:14;16.40;;;8.07;;
12660;SDS011;39039;51.802;5.710;2022-08-21T04:22:41;14.47;;;8.87;;
12660;SDS011;39039;51.802;5.710;2022-08-21T04:25:09;14.83;;;9.27;;
12660;SDS011;39039;51.802;5.710;2022-08-21T04:27:36;19.50;;;9.53;;
12660;SDS011;39039;51.802;5.710;2022-08-21T04:30:04;15.00;;;9.10;;
12660;SDS011;39039;51.802;5.710;2022-08-21T04:32:33;15.80;;;8.87;;
12660;SDS011;39039;51.802;5.710;2022-08-21T04:35:00;16.20;;;9.07;;
12660;SDS011;39039;51.802;5.710;2022-08-21T04:37:28;16.47;;;9.13;;
12660;SDS011;39039;51.802;5.710;2022-08-21T04:39:56;17.27;;;9.47;;
12660;SDS011;39039;51.802;5.710;2022-08-21T04:42:23;16.43;;;10.07;;
12660;SDS011;39039;51.802;5.710;2022-08-21T04:44:50;18.53;;;10.07;;
12660;SDS011;39039;51.802;5.710;2022-08-21T04:47:18;15.37;;;8.80;;
12660;SDS011;39039;51.802;5.710;2022-08-21T04:49:46;16.17;;;9.27;;
12660;SDS011;39039;51.802;5.710;2022-08-21T04:52:13;12.63;;;8.43;;
12660;SDS011;39039;51.802;5.710;2022-08-21T04:54:44;12.53;;;7.20;;
12660;SDS011;39039;51.802;5.710;2022-08-21T04:57:13;17.77;;;7.83;;
12660;SDS011;39039;51.802;5.710;2022-08-21T04:59:43;14.50;;;7.47;;
12660;SDS011;39039;51.802;5.710;2022-08-21T05:02:11;12.83;;;8.30;;
12660;SDS011;39039;51.802;5.710;2022-08-21T05:04:39;11.77;;;8.20;;
12660;SDS011;39039;51.802;5.710;2022-08-21T05:07:12;11.20;;;8.00;;
12660;SDS011;39039;51.802;5.710;2022-08-21T05:09:41;11.13;;;7.57;;
12660;SDS011;39039;51.802;5.710;2022-08-21T05:12:08;10.93;;;8.03;;
12660;SDS011;39039;51.802;5.710;2022-08-21T05:14:35;12.77;;;8.53;;
12660;SDS011;39039;51.802;5.710;2022-08-21T05:17:02;12.87;;;8.13;;
12660;SDS011;39039;51.802;5.710;2022-08-21T05:19:29;14.07;;;8.70;;
12660;SDS011;39039;51.802;5.710;2022-08-21T05:21:56;16.07;;;9.60;;
12660;SDS011;39039;51.802;5.710;2022-08-21T05:24:25;14.03;;;8.70;;
12660;SDS011;39039;51.802;5.710;2022-08-21T05:26:52;17.07;;;9.93;;
12660;SDS011;39039;51.802;5.710;2022-08-21T05:29:19;13.50;;;9.40;;
12660;SDS011;39039;51.802;5.710;2022-08-21T05:31:46;16.53;;;9.90;;
12660;SDS011;39039;51.802;5.710;2022-08-21T05:34:14;16.90;;;10.57;;
12660;SDS011;39039;51.802;5.710;2022-08-21T05:36:43;24.10;;;10.53;;
12660;SDS011;39039;51.802;5.710;2022-08-21T05:39:11;20.20;;;10.33;;
12660;SDS011;39039;51.802;5.710;2022-08-21T05:41:39;13.40;;;9.07;;
12660;SDS011;39039;51.802;5.710;2022-08-21T05:44:06;15.90;;;9.77;;
12660;SDS011;39039;51.802;5.710;2022-08-21T05:46:33;18.83;;;10.87;;
12660;SDS011;39039;51.802;5.710;2022-08-21T05:49:00;17.47;;;10.77;;
12660;SDS011;39039;51.802;5.710;2022-08-21T05:51:27;18.67;;;11.47;;
12660;SDS011;39039;51.802;5.710;2022-08-21T05:53:54;16.50;;;10.20;;
12660;SDS011;39039;51.802;5.710;2022-08-21T05:56:21;20.10;;;10.80;;
12660;SDS011;39039;51.802;5.710;2022-08-21T05:58:49;14.07;;;10.47;;
12660;SDS011;39039;51.802;5.710;2022-08-21T06:01:16;14.30;;;9.50;;
12660;SDS011;39039;51.802;5.710;2022-08-21T06:03:42;17.30;;;10.50;;
12660;SDS011;39039;51.802;5.710;2022-08-21T06:06:09;13.80;;;10.27;;
12660;SDS011;39039;51.802;5.710;2022-08-21T06:08:36;17.40;;;10.00;;
12660;SDS011;39039;51.802;5.710;2022-08-21T06:11:04;17.30;;;9.77;;
12660;SDS011;39039;51.802;5.710;2022-08-21T06:13:31;17.57;;;10.20;;
12660;SDS011;39039;51.802;5.710;2022-08-21T06:16:05;15.50;;;9.43;;
12660;SDS011;39039;51.802;5.710;2022-08-21T06:18:33;18.90;;;9.67;;
12660;SDS011;39039;51.802;5.710;2022-08-21T06:21:00;13.70;;;8.83;;
12660;SDS011;39039;51.802;5.710;2022-08-21T06:23:27;15.03;;;9.47;;
12660;SDS011;39039;51.802;5.710;2022-08-21T06:25:54;14.97;;;9.07;;
12660;SDS011;39039;51.802;5.710;2022-08-21T06:28:21;13.47;;;8.23;;
12660;SDS011;39039;51.802;5.710;2022-08-21T06:30:48;13.73;;;7.97;;
12660;SDS011;39039;51.802;5.710;2022-08-21T06:33:17;14.33;;;7.97;;
12660;SDS011;39039;51.802;5.710;2022-08-21T06:35:44;12.40;;;7.57;;
12660;SDS011;39039;51.802;5.710;2022-08-21T06:38:11;10.70;;;7.50;;
12660;SDS011;39039;51.802;5.710;2022-08-21T06:40:37;13.63;;;6.30;;
12660;SDS011;39039;51.802;5.710;2022-08-21T06:43:05;9.43;;;6.70;;
12660;SDS011;39039;51.802;5.710;2022-08-21T06:45:33;13.93;;;6.80;;
12660;SDS011;39039;51.802;5.710;2022-08-21T06:47:59;11.73;;;6.67;;
12660;SDS011;39039;51.802;5.710;2022-08-21T06:50:28;12.90;;;6.10;;
12660;SDS011;39039;51.802;5.710;2022-08-21T06:52:58;10.53;;;5.67;;
12660;SDS011;39039;51.802;5.710;2022-08-21T06:55:26;12.17;;;5.63;;
12660;SDS011;39039;51.802;5.710;2022-08-21T06:57:53;13.77;;;6.20;;
12660;SDS011;39039;51.802;5.710;2022-08-21T07:00:21;12.33;;;5.57;;
12660;SDS011;39039;51.802;5.710;2022-08-21T07:02:48;12.37;;;5.67;;
12660;SDS011;39039;51.802;5.710;2022-08-21T07:05:14;13.50;;;5.57;;
12660;SDS011;39039;51.802;5.710;2022-08-21T07:07:43;12.27;;;6.37;;
12660;SDS011;39039;51.802;5.710;2022-08-21T07:10:10;14.10;;;6.07;;
12660;SDS011;39039;51.802;5.710;2022-08-21T07:12:37;10.20;;;5.40;;
12660;SDS011;39039;51.802;5.710;2022-08-21T07:15:04;14.80;;;6.07;;
12660;SDS011;39039;51.802;5.710;2022-08-21T07:17:31;10.55;;;5.85;;
12660;SDS011;39039;51.802;5.710;2022-08-21T07:19:58;12.27;;;5.80;;
12660;SDS011;39039;51.802;5.710;2022-08-21T07:22:25;11.48;;;5.68;;
12660;SDS011;39039;51.802;5.710;2022-08-21T07:24:54;12.67;;;5.03;;
12660;SDS011;39039;51.802;5.710;2022-08-21T07:27:21;10.70;;;5.22;;
12660;SDS011;39039;51.802;5.710;2022-08-21T07:29:48;11.95;;;5.78;;
12660;SDS011;39039;51.802;5.710;2022-08-21T07:32:14;11.27;;;5.38;;
12660;SDS011;39039;51.802;5.710;2022-08-21T07:34:42;9.73;;;5.00;;
12660;SDS011;39039;51.802;5.710;2022-08-21T07:37:09;10.15;;;5.28;;
12660;SDS011;39039;51.802;5.710;2022-08-21T07:39:36;12.82;;;5.75;;
12660;SDS011;39039;51.802;5.710;2022-08-21T07:42:04;8.70;;;4.47;;
12660;SDS011;39039;51.802;5.710;2022-08-21T07:44:31;11.52;;;5.28;;
12660;SDS011;39039;51.802;5.710;2022-08-21T07:46:59;8.93;;;4.70;;
12660;SDS011;39039;51.802;5.710;2022-08-21T07:49:26;12.90;;;4.85;;
12660;SDS011;39039;51.802;5.710;2022-08-21T07:51:53;10.98;;;4.10;;
12660;SDS011;39039;51.802;5.710;2022-08-21T07:54:20;8.05;;;3.92;;
12660;SDS011;39039;51.802;5.710;2022-08-21T07:56:47;7.18;;;3.80;;
12660;SDS011;39039;51.802;5.710;2022-08-21T07:59:15;8.63;;;3.70;;
12660;SDS011;39039;51.802;5.710;2022-08-21T08:01:42;9.32;;;4.13;;
12660;SDS011;39039;51.802;5.710;2022-08-21T08:04:09;9.45;;;3.38;;
12660;SDS011;39039;51.802;5.710;2022-08-21T08:06:35;11.68;;;3.70;;
12660;SDS011;39039;51.802;5.710;2022-08-21T08:09:02;8.88;;;3.60;;
12660;SDS011;39039;51.802;5.710;2022-08-21T08:11:29;10.02;;;3.90;;
12660;SDS011;39039;51.802;5.710;2022-08-21T08:13:57;10.07;;;2.88;;
12660;SDS011;39039;51.802;5.710;2022-08-21T08:16:25;7.47;;;2.97;;
12660;SDS011;39039;51.802;5.710;2022-08-21T08:18:52;4.15;;;2.88;;
12660;SDS011;39039;51.802;5.710;2022-08-21T08:21:20;9.02;;;3.03;;
12660;SDS011;39039;51.802;5.710;2022-08-21T08:23:47;9.15;;;2.47;;
12660;SDS011;39039;51.802;5.710;2022-08-21T08:26:14;17.42;;;3.63;;
12660;SDS011;39039;51.802;5.710;2022-08-21T08:28:41;8.95;;;3.03;;
12660;SDS011;39039;51.802;5.710;2022-08-21T08:31:08;6.60;;;2.65;;
12660;SDS011;39039;51.802;5.710;2022-08-21T08:33:37;10.77;;;2.58;;
12660;SDS011;39039;51.802;5.710;2022-08-21T08:36:04;7.50;;;2.97;;
12660;SDS011;39039;51.802;5.710;2022-08-21T08:38:31;7.50;;;2.60;;
12660;SDS011;39039;51.802;5.710;2022-08-21T08:41:00;9.23;;;3.08;;
12660;SDS011;39039;51.802;5.710;2022-08-21T08:43:32;6.40;;;2.30;;
12660;SDS011;39039;51.802;5.710;2022-08-21T08:46:02;8.48;;;2.40;;
12660;SDS011;39039;51.802;5.710;2022-08-21T08:48:39;9.65;;;1.95;;
12660;SDS011;39039;51.802;5.710;2022-08-21T08:51:14;6.53;;;2.33;;
12660;SDS011;39039;51.802;5.710;2022-08-21T08:53:46;6.88;;;2.75;;
12660;SDS011;39039;51.802;5.710;2022-08-21T08:56:26;6.05;;;2.28;;
12660;SDS011;39039;51.802;5.710;2022-08-21T08:58:55;7.15;;;2.53;;
12660;SDS011;39039;51.802;5.710;2022-08-21T09:01:26;7.95;;;2.30;;
12660;SDS011;39039;51.802;5.710;2022-08-21T09:03:54;10.98;;;3.40;;
12660;SDS011;39039;51.802;5.710;2022-08-21T09:06:28;6.43;;;2.25;;
12660;SDS011;39039;51.802;5.710;2022-08-21T09:09:06;5.15;;;2.10;;
12660;SDS011;39039;51.802;5.710;2022-08-21T09:11:43;6.90;;;2.25;;
12660;SDS011;39039;51.802;5.710;2022-08-21T09:14:16;4.55;;;2.00;;
12660;SDS011;39039;51.802;5.710;2022-08-21T09:16:54;8.85;;;2.25;;
12660;SDS011;39039;51.802;5.710;2022-08-21T09:19:35;4.93;;;2.13;;
12660;SDS011;39039;51.802;5.710;2022-08-21T09:22:08;5.35;;;2.38;;
12660;SDS011;39039;51.802;5.710;2022-08-21T09:24:46;7.65;;;2.45;;
12660;SDS011;39039;51.802;5.710;2022-08-21T09:27:22;4.22;;;1.63;;
12660;SDS011;39039;51.802;5.710;2022-08-21T09:29:50;5.68;;;1.70;;
12660;SDS011;39039;51.802;5.710;2022-08-21T09:32:19;8.95;;;2.00;;
12660;SDS011;39039;51.802;5.710;2022-08-21T09:34:56;6.18;;;2.33;;
12660;SDS011;39039;51.802;5.710;2022-08-21T09:37:24;5.40;;;2.53;;
12660;SDS011;39039;51.802;5.710;2022-08-21T09:39:53;5.97;;;1.80;;
12660;SDS011;39039;51.802;5.710;2022-08-21T09:42:23;6.72;;;1.63;;
12660;SDS011;39039;51.802;5.710;2022-08-21T09:45:04;2.80;;;1.30;;
12660;SDS011;39039;51.802;5.710;2022-08-21T09:47:37;4.05;;;1.55;;
12660;SDS011;39039;51.802;5.710;2022-08-21T09:50:10;6.32;;;2.03;;
12660;SDS011;39039;51.802;5.710;2022-08-21T09:52:42;4.85;;;2.13;;
12660;SDS011;39039;51.802;5.710;2022-08-21T09:55:15;4.57;;;1.40;;
12660;SDS011;39039;51.802;5.710;2022-08-21T09:57:59;3.72;;;1.60;;
12660;SDS011;39039;51.802;5.710;2022-08-21T10:00:28;6.10;;;1.45;;
12660;SDS011;39039;51.802;5.710;2022-08-21T10:03:07;4.28;;;1.80;;
12660;SDS011;39039;51.802;5.710;2022-08-21T10:05:49;3.70;;;1.58;;
12660;SDS011;39039;51.802;5.710;2022-08-21T10:08:20;6.80;;;1.52;;
12660;SDS011;39039;51.802;5.710;2022-08-21T10:10:50;5.05;;;1.50;;
12660;SDS011;39039;51.802;5.710;2022-08-21T10:13:21;7.15;;;2.05;;
12660;SDS011;39039;51.802;5.710;2022-08-21T10:15:54;2.92;;;1.45;;
12660;SDS011;39039;51.802;5.710;2022-08-21T10:18:34;6.78;;;2.08;;
12660;SDS011;39039;51.802;5.710;2022-08-21T10:21:08;5.07;;;1.77;;
12660;SDS011;39039;51.802;5.710;2022-08-21T10:23:45;7.95;;;2.47;;
12660;SDS011;39039;51.802;5.710;2022-08-21T10:26:24;4.80;;;2.22;;
12660;SDS011;39039;51.802;5.710;2022-08-21T10:28:59;2.05;;;1.55;;
12660;SDS011;39039;51.802;5.710;2022-08-21T10:31:32;2.63;;;1.45;;
12660;SDS011;39039;51.802;5.710;2022-08-21T10:34:15;4.95;;;2.30;;
12660;SDS011;39039;51.802;5.710;2022-08-21T10:36:56;4.82;;;1.48;;
12660;SDS011;39039;51.802;5.710;2022-08-21T10:39:31;3.30;;;1.83;;
12660;SDS011;39039;51.802;5.710;2022-08-21T10:42:10;3.90;;;2.22;;
12660;SDS011;39039;51.802;5.710;2022-08-21T10:44:48;5.28;;;1.83;;
12660;SDS011;39039;51.802;5.710;2022-08-21T10:47:24;3.40;;;1.38;;
12660;SDS011;39039;51.802;5.710;2022-08-21T10:50:00;6.22;;;1.83;;
12660;SDS011;39039;51.802;5.710;2022-08-21T10:52:45;6.90;;;2.38;;
12660;SDS011;39039;51.802;5.710;2022-08-21T10:55:21;4.55;;;1.27;;
12660;SDS011;39039;51.802;5.710;2022-08-21T10:57:54;4.78;;;1.83;;
12660;SDS011;39039;51.802;5.710;2022-08-21T11:00:26;6.72;;;2.30;;
12660;SDS011;39039;51.802;5.710;2022-08-21T11:03:01;4.13;;;1.60;;
12660;SDS011;39039;51.802;5.710;2022-08-21T11:05:31;4.40;;;1.70;;
12660;SDS011;39039;51.802;5.710;2022-08-21T11:08:04;3.45;;;1.77;;
12660;SDS011;39039;51.802;5.710;2022-08-21T11:10:37;2.60;;;1.60;;
12660;SDS011;39039;51.802;5.710;2022-08-21T11:13:08;4.30;;;1.92;;
12660;SDS011;39039;51.802;5.710;2022-08-21T11:15:41;4.15;;;2.08;;
12660;SDS011;39039;51.802;5.710;2022-08-21T11:18:21;2.63;;;2.00;;
12660;SDS011;39039;51.802;5.710;2022-08-21T11:20:51;3.45;;;1.50;;
12660;SDS011;39039;51.802;5.710;2022-08-21T11:23:28;4.45;;;1.65;;
12660;SDS011;39039;51.802;5.710;2022-08-21T11:26:00;3.70;;;1.90;;
12660;SDS011;39039;51.802;5.710;2022-08-21T11:28:33;4.38;;;1.42;;
12660;SDS011;39039;51.802;5.710;2022-08-21T11:31:06;6.10;;;1.60;;
12660;SDS011;39039;51.802;5.710;2022-08-21T11:33:47;4.22;;;1.88;;
12660;SDS011;39039;51.802;5.710;2022-08-21T11:36:22;4.68;;;2.13;;
12660;SDS011;39039;51.802;5.710;2022-08-21T11:38:57;3.50;;;1.92;;
12660;SDS011;39039;51.802;5.710;2022-08-21T11:41:34;3.20;;;1.55;;
12660;SDS011;39039;51.802;5.710;2022-08-21T11:44:08;3.78;;;1.70;;
12660;SDS011;39039;51.802;5.710;2022-08-21T11:46:40;2.78;;;1.20;;
12660;SDS011;39039;51.802;5.710;2022-08-21T11:49:23;5.82;;;2.00;;
12660;SDS011;39039;51.802;5.710;2022-08-21T11:52:10;2.63;;;2.17;;
12660;SDS011;39039;51.802;5.710;2022-08-21T11:54:44;4.55;;;1.58;;
12660;SDS011;39039;51.802;5.710;2022-08-21T11:57:16;5.28;;;2.28;;
12660;SDS011;39039;51.802;5.710;2022-08-21T11:59:47;4.18;;;2.15;;
12660;SDS011;39039;51.802;5.710;2022-08-21T12:02:19;2.65;;;1.73;;
12660;SDS011;39039;51.802;5.710;2022-08-21T12:04:51;4.47;;;2.80;;
12660;SDS011;39039;51.802;5.710;2022-08-21T12:07:28;5.43;;;1.73;;
12660;SDS011;39039;51.802;5.710;2022-08-21T12:09:59;4.50;;;3.42;;
12660;SDS011;39039;51.802;5.710;2022-08-21T12:12:28;5.03;;;2.67;;
12660;SDS011;39039;51.802;5.710;2022-08-21T12:15:12;8.73;;;3.70;;
12660;SDS011;39039;51.802;5.710;2022-08-21T12:17:50;4.63;;;1.52;;
12660;SDS011;39039;51.802;5.710;2022-08-21T12:20:23;2.90;;;2.35;;
12660;SDS011;39039;51.802;5.710;2022-08-21T12:23:02;6.13;;;2.60;;
12660;SDS011;39039;51.802;5.710;2022-08-21T12:25:37;6.60;;;1.77;;
12660;SDS011;39039;51.802;5.710;2022-08-21T12:28:07;6.07;;;1.75;;
12660;SDS011;39039;51.802;5.710;2022-08-21T12:30:36;3.15;;;2.85;;
12660;SDS011;39039;51.802;5.710;2022-08-21T12:33:18;3.22;;;2.13;;
12660;SDS011;39039;51.802;5.710;2022-08-21T12:35:49;4.53;;;2.22;;
12660;SDS011;39039;51.802;5.710;2022-08-21T12:38:18;4.95;;;2.67;;
12660;SDS011;39039;51.802;5.710;2022-08-21T12:40:53;2.70;;;1.92;;
12660;SDS011;39039;51.802;5.710;2022-08-21T12:43:24;3.85;;;3.05;;
12660;SDS011;39039;51.802;5.710;2022-08-21T12:45:55;2.83;;;2.08;;
12660;SDS011;39039;51.802;5.710;2022-08-21T12:48:25;3.08;;;1.95;;
12660;SDS011;39039;51.802;5.710;2022-08-21T12:50:56;3.47;;;1.25;;
12660;SDS011;39039;51.802;5.710;2022-08-21T12:53:27;2.40;;;2.20;;
12660;SDS011;39039;51.802;5.710;2022-08-21T12:56:00;4.22;;;2.40;;
12660;SDS011;39039;51.802;5.710;2022-08-21T12:58:28;4.55;;;2.40;;
12660;SDS011;39039;51.802;5.710;2022-08-21T13:00:58;3.90;;;2.20;;
12660;SDS011;39039;51.802;5.710;2022-08-21T13:03:28;3.83;;;1.50;;
12660;SDS011;39039;51.802;5.710;2022-08-21T13:05:56;3.63;;;1.90;;
12660;SDS011;39039;51.802;5.710;2022-08-21T13:08:24;5.07;;;1.98;;
12660;SDS011;39039;51.802;5.710;2022-08-21T13:10:56;4.80;;;0.80;;
12660;SDS011;39039;51.802;5.710;2022-08-21T13:13:27;3.30;;;1.10;;
12660;SDS011;39039;51.802;5.710;2022-08-21T13:15:59;4.45;;;0.90;;
12660;SDS011;39039;51.802;5.710;2022-08-21T13:18:30;1.83;;;0.60;;
12660;SDS011;39039;51.802;5.710;2022-08-21T13:21:03;4.72;;;0.88;;
12660;SDS011;39039;51.802;5.710;2022-08-21T13:23:31;1.65;;;0.77;;
12660;SDS011;39039;51.802;5.710;2022-08-21T13:25:59;3.45;;;0.80;;
12660;SDS011;39039;51.802;5.710;2022-08-21T13:28:32;2.88;;;0.70;;
12660;SDS011;39039;51.802;5.710;2022-08-21T13:31:01;3.63;;;0.65;;
12660;SDS011;39039;51.802;5.710;2022-08-21T13:33:32;2.33;;;0.85;;
12660;SDS011;39039;51.802;5.710;2022-08-21T13:36:01;1.95;;;0.55;;
12660;SDS011;39039;51.802;5.710;2022-08-21T13:38:32;1.55;;;0.80;;
12660;SDS011;39039;51.802;5.710;2022-08-21T13:41:02;2.33;;;0.98;;
12660;SDS011;39039;51.802;5.710;2022-08-21T13:43:33;3.70;;;0.80;;
12660;SDS011;39039;51.802;5.710;2022-08-21T13:46:02;3.03;;;0.95;;
12660;SDS011;39039;51.802;5.710;2022-08-21T13:48:35;1.23;;;0.57;;
12660;SDS011;39039;51.802;5.710;2022-08-21T13:51:03;5.22;;;1.05;;
12660;SDS011;39039;51.802;5.710;2022-08-21T13:53:33;5.55;;;0.85;;
12660;SDS011;39039;51.802;5.710;2022-08-21T13:56:03;3.00;;;1.00;;
12660;SDS011;39039;51.802;5.710;2022-08-21T13:58:31;3.38;;;1.10;;
12660;SDS011;39039;51.802;5.710;2022-08-21T14:00:59;3.85;;;1.17;;
12660;SDS011;39039;51.802;5.710;2022-08-21T14:03:31;1.80;;;0.60;;
12660;SDS011;39039;51.802;5.710;2022-08-21T14:06:02;3.17;;;1.08;;
12660;SDS011;39039;51.802;5.710;2022-08-21T14:08:37;2.97;;;0.75;;
12660;SDS011;39039;51.802;5.710;2022-08-21T14:11:09;2.42;;;0.65;;
12660;SDS011;39039;51.802;5.710;2022-08-21T14:13:38;3.58;;;1.00;;
12660;SDS011;39039;51.802;5.710;2022-08-21T14:16:17;2.45;;;0.63;;
12660;SDS011;39039;51.802;5.710;2022-08-21T14:18:45;12.23;;;1.25;;
12660;SDS011;39039;51.802;5.710;2022-08-21T14:21:13;3.28;;;0.88;;
12660;SDS011;39039;51.802;5.710;2022-08-21T14:23:40;3.28;;;0.80;;
12660;SDS011;39039;51.802;5.710;2022-08-21T14:26:10;3.67;;;1.02;;
12660;SDS011;39039;51.802;5.710;2022-08-21T14:28:38;1.77;;;0.75;;
12660;SDS011;39039;51.802;5.710;2022-08-21T14:31:15;5.93;;;1.05;;
12660;SDS011;39039;51.802;5.710;2022-08-21T14:33:42;1.95;;;0.80;;
12660;SDS011;39039;51.802;5.710;2022-08-21T14:36:10;1.65;;;0.68;;
12660;SDS011;39039;51.802;5.710;2022-08-21T14:38:38;4.10;;;1.15;;
12660;SDS011;39039;51.802;5.710;2022-08-21T14:41:10;3.45;;;0.98;;
12660;SDS011;39039;51.802;5.710;2022-08-21T14:43:42;2.70;;;0.70;;
12660;SDS011;39039;51.802;5.710;2022-08-21T14:46:10;2.47;;;0.80;;
12660;SDS011;39039;51.802;5.710;2022-08-21T14:48:38;3.38;;;1.10;;
12660;SDS011;39039;51.802;5.710;2022-08-21T14:51:04;3.78;;;0.80;;
12660;SDS011;39039;51.802;5.710;2022-08-21T14:53:32;2.53;;;0.70;;
12660;SDS011;39039;51.802;5.710;2022-08-21T14:55:59;2.38;;;0.75;;